Baldwin, Louisiana
Current Conditions -  °F | °C
As of 10:55 AM on Saturday 22 Nov 2014 (Local Time) from KPTN Reporting Station
Clear Clear  
Wind Chill: 66°   Ceiling: Unl
Heat Index: 66°   Visibility: 10mi
Dew Point: 57°   Wind: 8mph
Humidity: 73%   Direction: 90°E
Pressure: 30.17"   Gusts: NA
Location:  29.84°N, 91.54°W
Report Text: KPTN 221655Z AUTO 09007KT 10SM CLR 19/14 A3017 RMK AO1
Loading
Personal Weather Stations






























Interactive Weather Map New forecast layout! Learn more

10-Day Weather Forecast

Advertisements
Track Severe Weather on mobile